Wetterdaten: Woche 02.03.15 - 08.03.15 (KW10)
Datum Zeit Temp. A. Feuchte A. Luftdruck Regen Wind Richtung Sonnenschein ET UV Solar Taupunkt Windchill Windben
02.03.2015 00:00 5,1 C 96 % 1005,7 hPa 0,0 l/m 3,4 km/h (1 Bft) S 0,00 h 0,000 mm 0,0 UV-I 0 W/m 4,6 C 5,1 C 6,0 km/h (2 Bft)
02.03.2015 01:00 5,2 C 96 % 1004,6 hPa 0,0 l/m 7,7 km/h (2 Bft) S-SO 0,00 h 0,000 mm 0,0 UV-I 0 W/m 4,7 C 3,9 C 11,7 km/h (2 Bft)
02.03.2015 02:00 5,3 C 96 % 1003,3 hPa 0,2 l/m 12,0 km/h (2 Bft) S 0,00 h 0,000 mm 0,0 UV-I 0 W/m 4,7 C 1,2 C 18,4 km/h (3 Bft)
02.03.2015 03:00 5,4 C 95 % 1002,2 hPa 0,2 l/m 12,9 km/h (3 Bft) S 0,00 h 0,000 mm 0,0 UV-I 0 W/m 4,6 C 0,8 C 19,9 km/h (4 Bft)
02.03.2015 04:00 5,4 C 95 % 1001,3 hPa 1,6 l/m 12,7 km/h (3 Bft) S 0,00 h 0,000 mm 0,0 UV-I 0 W/m 4,6 C 1,0 C 20,0 km/h (4 Bft)
02.03.2015 05:00 4,9 C 94 % 1001,4 hPa 3,2 l/m 11,1 km/h (2 Bft) W 0,00 h 0,000 mm 0,0 UV-I 0 W/m 4,1 C 1,6 C 17,3 km/h (3 Bft)
02.03.2015 06:00 4,5 C 94 % 1001,3 hPa 0,0 l/m 7,8 km/h (2 Bft) W-SW 0,00 h 0,000 mm 0,0 UV-I 0 W/m 3,6 C 2,9 C 12,5 km/h (2 Bft)
02.03.2015 07:00 4,2 C 90 % 1002,1 hPa 0,0 l/m 8,9 km/h (2 Bft) W 0,00 h 0,000 mm 0,0 UV-I 14 W/m 2,7 C 1,9 C 14,2 km/h (3 Bft)
02.03.2015 08:00 3,7 C 90 % 1003,0 hPa 0,0 l/m 6,6 km/h (2 Bft) W-SW 0,40 h 0,000 mm 0,5 UV-I 47 W/m 2,1 C 2,9 C 10,4 km/h (2 Bft)
02.03.2015 09:00 4,2 C 86 % 1003,5 hPa 0,2 l/m 6,7 km/h (2 Bft) W 1,00 h 0,025 mm 0,6 UV-I 119 W/m 2,1 C 3,3 C 11,0 km/h (2 Bft)
02.03.2015 10:00 3,9 C 87 % 1004,8 hPa 0,0 l/m 12,7 km/h (3 Bft) W 1,00 h 0,051 mm 0,6 UV-I 114 W/m 1,9 C -0,7 C 19,1 km/h (3 Bft)
02.03.2015 11:00 2,9 C 91 % 1005,3 hPa 0,0 l/m 9,4 km/h (2 Bft) W-SW 1,00 h 0,051 mm 1,0 UV-I 198 W/m 1,5 C 0,3 C 14,8 km/h (3 Bft)
02.03.2015 12:00 3,9 C 87 % 1005,6 hPa 0,0 l/m 9,1 km/h (2 Bft) W 1,00 h 0,076 mm 1,2 UV-I 248 W/m 1,8 C 1,5 C 13,2 km/h (3 Bft)
02.03.2015 13:00 3,3 C 89 % 1006,1 hPa 0,0 l/m 11,1 km/h (2 Bft) W 1,00 h 0,102 mm 1,1 UV-I 219 W/m 1,7 C -0,5 C 17,2 km/h (3 Bft)
02.03.2015 14:00 4,4 C 82 % 1006,5 hPa 0,2 l/m 13,4 km/h (3 Bft) W 1,00 h 0,102 mm 1,3 UV-I 400 W/m 1,6 C -0,5 C 21,2 km/h (4 Bft)
02.03.2015 15:00 5,4 C 76 % 1007,2 hPa 0,0 l/m 13,1 km/h (3 Bft) W 1,00 h 0,178 mm 0,9 UV-I 312 W/m 1,5 C 0,8 C 19,8 km/h (4 Bft)
02.03.2015 16:00 5,1 C 75 % 1008,0 hPa 0,0 l/m 7,3 km/h (2 Bft) W 0,97 h 0,152 mm 0,5 UV-I 136 W/m 1,1 C 3,9 C 11,2 km/h (2 Bft)
02.03.2015 17:00 4,4 C 71 % 1008,5 hPa 0,0 l/m 4,1 km/h (1 Bft) W-SW 0,00 h 0,076 mm 0,0 UV-I 18 W/m -0,5 C 4,0 C 7,4 km/h (2 Bft)
02.03.2015 18:00 2,7 C 79 % 1009,1 hPa 0,0 l/m 1,0 km/h (0 Bft) SW 0,00 h 0,025 mm 0,0 UV-I 0 W/m -0,6 C 2,7 C 2,4 km/h (1 Bft)
02.03.2015 19:00 1,8 C 86 % 1009,1 hPa 0,0 l/m 1,0 km/h (0 Bft) S-SO 0,00 h 0,000 mm 0,0 UV-I 0 W/m -0,3 C 1,8 C 2,7 km/h (1 Bft)
02.03.2015 20:00 2,0 C 88 % 1009,4 hPa 0,0 l/m 8,7 km/h (2 Bft) S-SW 0,00 h 0,000 mm 0,0 UV-I 0 W/m 0,2 C -0,6 C 14,1 km/h (3 Bft)
02.03.2015 21:00 1,7 C 91 % 1010,6 hPa 0,2 l/m 14,6 km/h (3 Bft) W 0,00 h 0,000 mm 0,0 UV-I 0 W/m 0,5 C -4,4 C 23,0 km/h (4 Bft)
02.03.2015 22:00 1,4 C 87 % 1012,4 hPa 0,2 l/m 15,8 km/h (3 Bft) W 0,00 h 0,000 mm 0,0 UV-I 0 W/m -0,6 C -5,6 C 24,9 km/h (4 Bft)
02.03.2015 23:00 1,2 C 82 % 1014,1 hPa 0,0 l/m 15,0 km/h (3 Bft) W 0,00 h 0,025 mm 0,0 UV-I 0 W/m -1,5 C -5,3 C 23,4 km/h (4 Bft)
03.03.2015 00:00 1,1 C 83 % 1015,4 hPa 0,0 l/m 13,5 km/h (3 Bft) W 0,00 h 0,025 mm 0,0 UV-I 0 W/m -1,5 C -4,5 C 21,6 km/h (4 Bft)
03.03.2015 01:00 0,9 C 84 % 1016,4 hPa 0,0 l/m 13,5 km/h (3 Bft) W-SW 0,00 h 0,025 mm 0,0 UV-I 0 W/m -1,6 C -4,8 C 20,4 km/h (4 Bft)
03.03.2015 02:00 0,9 C 83 % 1017,4 hPa 0,0 l/m 12,3 km/h (2 Bft) W-SW 0,00 h 0,025 mm 0,0 UV-I 0 W/m -1,7 C -4,0 C 19,8 km/h (3 Bft)
03.03.2015 03:00 0,2 C 90 % 1018,4 hPa 0,2 l/m 16,9 km/h (3 Bft) W 0,00 h 0,025 mm 0,0 UV-I 0 W/m -1,3 C -7,5 C 25,8 km/h (4 Bft)
03.03.2015 04:00 -0,6 C 95 % 1019,2 hPa 1,4 l/m 8,0 km/h (2 Bft) W 0,00 h 0,000 mm 0,0 UV-I 0 W/m -1,4 C -3,1 C 12,5 km/h (2 Bft)
03.03.2015 05:00 -0,2 C 93 % 1019,8 hPa 0,2 l/m 10,1 km/h (2 Bft) W-SW 0,00 h 0,000 mm 0,0 UV-I 0 W/m -1,2 C -3,7 C 15,6 km/h (3 Bft)
03.03.2015 06:00 -0,0 C 92 % 1020,4 hPa 0,0 l/m 7,4 km/h (2 Bft) W-SW 0,00 h 0,000 mm 0,0 UV-I 0 W/m -1,2 C -1,7 C 11,8 km/h (2 Bft)
03.03.2015 07:00 0,0 C 92 % 1021,0 hPa 0,0 l/m 6,1 km/h (2 Bft) SW 0,00 h 0,000 mm 0,0 UV-I 21 W/m -1,2 C -0,8 C 10,3 km/h (2 Bft)
03.03.2015 08:00 0,4 C 90 % 1021,4 hPa 0,0 l/m 6,6 km/h (2 Bft) W-SW 0,78 h 0,000 mm 0,6 UV-I 82 W/m -1,0 C -0,6 C 11,0 km/h (2 Bft)
03.03.2015 09:00 1,3 C 85 % 1021,8 hPa 0,2 l/m 9,1 km/h (2 Bft) W-SW 1,00 h 0,025 mm 0,7 UV-I 180 W/m -0,9 C -1,2 C 14,7 km/h (3 Bft)
03.03.2015 10:00 2,1 C 82 % 1021,8 hPa 0,0 l/m 8,0 km/h (2 Bft) S 1,00 h 0,076 mm 1,1 UV-I 276 W/m -0,7 C 0,1 C 12,5 km/h (2 Bft)
03.03.2015 11:00 3,4 C 73 % 1021,9 hPa 0,0 l/m 13,7 km/h (3 Bft) W-SW 1,00 h 0,102 mm 1,6 UV-I 255 W/m -1,1 C -2,0 C 19,7 km/h (3 Bft)
03.03.2015 12:00 3,9 C 68 % 1021,9 hPa 0,0 l/m 12,9 km/h (3 Bft) W-SW 1,00 h 0,152 mm 1,7 UV-I 304 W/m -1,4 C -0,8 C 19,9 km/h (4 Bft)
03.03.2015 13:00 5,6 C 59 % 1021,5 hPa 0,0 l/m 13,2 km/h (3 Bft) W-SW 1,00 h 0,152 mm 1,9 UV-I 453 W/m -1,8 C 0,9 C 20,8 km/h (4 Bft)
03.03.2015 14:00 6,4 C 54 % 1021,0 hPa 0,0 l/m 11,7 km/h (2 Bft) W-SW 1,00 h 0,229 mm 1,5 UV-I 379 W/m -2,3 C 2,7 C 17,4 km/h (3 Bft)
03.03.2015 15:00 7,1 C 48 % 1020,5 hPa 0,0 l/m 12,7 km/h (3 Bft) SW 1,00 h 0,203 mm 1,0 UV-I 334 W/m -3,0 C 3,0 C 19,6 km/h (3 Bft)
03.03.2015 16:00 6,7 C 48 % 1020,0 hPa 0,0 l/m 13,0 km/h (3 Bft) SW 0,95 h 0,203 mm 0,6 UV-I 149 W/m -3,5 C 2,2 C 20,3 km/h (4 Bft)
03.03.2015 17:00 5,5 C 56 % 1019,6 hPa 0,0 l/m 9,9 km/h (2 Bft) SW 0,00 h 0,127 mm 0,0 UV-I 24 W/m -2,5 C 2,8 C 15,5 km/h (3 Bft)
03.03.2015 18:00 4,5 C 62 % 1019,5 hPa 0,0 l/m 9,0 km/h (2 Bft) S 0,00 h 0,051 mm 0,0 UV-I 0 W/m -2,1 C 2,3 C 12,8 km/h (3 Bft)
03.03.2015 19:00 3,9 C 66 % 1019,3 hPa 0,0 l/m 6,8 km/h (2 Bft) S-SO 0,00 h 0,025 mm 0,0 UV-I 0 W/m -1,8 C 3,2 C 10,2 km/h (2 Bft)
03.03.2015 20:00 3,7 C 68 % 1018,8 hPa 0,0 l/m 9,3 km/h (2 Bft) S 0,00 h 0,025 mm 0,0 UV-I 0 W/m -1,6 C 1,2 C 13,9 km/h (3 Bft)
03.03.2015 21:00 3,9 C 70 % 1018,4 hPa 0,0 l/m 11,3 km/h (2 Bft) S 0,00 h 0,025 mm 0,0 UV-I 0 W/m -1,2 C 0,0 C 15,7 km/h (3 Bft)
03.03.2015 22:00 3,7 C 72 % 1018,3 hPa 0,0 l/m 5,7 km/h (2 Bft) S 0,00 h 0,025 mm 0,0 UV-I 0 W/m -1,0 C 2,7 C 9,4 km/h (2 Bft)
03.03.2015 23:00 3,6 C 73 % 1018,1 hPa 0,0 l/m 5,1 km/h (1 Bft) SW 0,00 h 0,025 mm 0,0 UV-I 0 W/m -0,8 C 2,7 C 9,2 km/h (2 Bft)
04.03.2015 00:00 3,9 C 73 % 1017,9 hPa 0,0 l/m 6,8 km/h (2 Bft) SW 0,00 h 0,025 mm 0,0 UV-I 0 W/m -0,5 C 2,9 C 11,2 km/h (2 Bft)
04.03.2015 01:00 3,6 C 80 % 1018,4 hPa 0,0 l/m 9,4 km/h (2 Bft) W-NW 0,00 h 0,025 mm 0,0 UV-I 0 W/m 0,5 C 1,1 C 14,0 km/h (3 Bft)
04.03.2015 02:00 2,3 C 88 % 1018,7 hPa 0,0 l/m 7,5 km/h (2 Bft) W-SW 0,00 h 0,025 mm 0,0 UV-I 0 W/m 0,4 C 0,9 C 11,8 km/h (2 Bft)
04.03.2015 03:00 1,6 C 92 % 1019,1 hPa 0,0 l/m 6,6 km/h (2 Bft) W-NW 0,00 h 0,000 mm 0,0 UV-I 0 W/m 0,4 C 0,6 C 10,7 km/h (2 Bft)
04.03.2015 04:00 1,3 C 94 % 1019,9 hPa 0,0 l/m 5,3 km/h (1 Bft) W-NW 0,00 h 0,000 mm 0,0 UV-I 0 W/m 0,4 C 1,0 C 8,1 km/h (2 Bft)
04.03.2015 05:00 1,2 C 93 % 1020,9 hPa 0,0 l/m 3,5 km/h (1 Bft) W-NW 0,00 h 0,000 mm 0,0 UV-I 0 W/m 0,1 C 1,0 C 6,3 km/h (2 Bft)
04.03.2015 06:00 1,1 C 92 % 1021,7 hPa 0,0 l/m 5,2 km/h (1 Bft) W-SW 0,00 h 0,000 mm 0,0 UV-I 0 W/m -0,1 C 0,7 C 8,7 km/h (2 Bft)
04.03.2015 07:00 0,9 C 90 % 1022,6 hPa 0,0 l/m 4,3 km/h (1 Bft) W-SW 0,07 h 0,000 mm 0,0 UV-I 33 W/m -0,6 C 0,7 C 7,3 km/h (2 Bft)
04.03.2015 08:00 1,8 C 82 % 1023,6 hPa 0,0 l/m 8,0 km/h (2 Bft) W-NW 0,93 h 0,025 mm 0,6 UV-I 179 W/m -0,9 C -0,3 C 11,9 km/h (2 Bft)
04.03.2015 09:00 2,1 C 80 % 1024,4 hPa 0,0 l/m 7,3 km/h (2 Bft) W-SW 1,00 h 0,076 mm 0,7 UV-I 140 W/m -1,0 C 0,7 C 11,7 km/h (2 Bft)
04.03.2015 10:00 3,3 C 73 % 1024,7 hPa 0,0 l/m 10,0 km/h (2 Bft) W-SW 1,00 h 0,076 mm 1,3 UV-I 390 W/m -1,2 C 0,3 C 15,9 km/h (3 Bft)
04.03.2015 11:00 4,5 C 64 % 1025,0 hPa 0,0 l/m 12,9 km/h (3 Bft) W 1,00 h 0,178 mm 1,7 UV-I 473 W/m -1,9 C -0,2 C 18,9 km/h (3 Bft)
04.03.2015 12:00 4,5 C 63 % 1025,0 hPa 0,0 l/m 11,5 km/h (2 Bft) W-NW 1,00 h 0,229 mm 2,0 UV-I 250 W/m -1,9 C 0,7 C 17,7 km/h (3 Bft)
04.03.2015 13:00 4,5 C 63 % 1024,7 hPa 0,0 l/m 10,5 km/h (2 Bft) W 1,00 h 0,000 mm 2,0 UV-I 250 W/m -1,9 C 1,3 C 16,3 km/h (3 Bft)
04.03.2015 14:00 4,6 C 63 % 1024,7 hPa 0,0 l/m 11,4 km/h (2 Bft) W 1,00 h 0,000 mm 2,0 UV-I 250 W/m -1,8 C 0,8 C 17,2 km/h (3 Bft)
04.03.2015 15:00 4,7 C 63 % 1024,9 hPa 0,0 l/m 10,8 km/h (2 Bft) W 1,00 h 0,000 mm 2,0 UV-I 250 W/m -1,7 C 1,4 C 16,2 km/h (3 Bft)
04.03.2015 16:00 4,1 C 63 % 1025,3 hPa 0,0 l/m 8,0 km/h (2 Bft) W 1,00 h 0,000 mm 2,0 UV-I 250 W/m -2,3 C 2,4 C 12,8 km/h (3 Bft)
04.03.2015 17:00 3,7 C 63 % 1025,7 hPa 0,0 l/m 7,2 km/h (2 Bft) W-NW 0,78 h 0,000 mm 2,0 UV-I 250 W/m -2,7 C 2,5 C 11,4 km/h (2 Bft)
04.03.2015 18:00 3,1 C 68 % 1026,2 hPa 0,0 l/m 5,5 km/h (2 Bft) W 0,00 h 0,000 mm 2,0 UV-I 250 W/m -2,2 C 2,9 C 9,3 km/h (2 Bft)
04.03.2015 19:00 2,8 C 70 % 1026,6 hPa 0,0 l/m 6,0 km/h (2 Bft) W-SW 0,00 h 0,025 mm 0,0 UV-I 0 W/m -2,2 C 2,3 C 9,6 km/h (2 Bft)
04.03.2015 20:00 2,4 C 72 % 1027,0 hPa 0,0 l/m 3,3 km/h (1 Bft) W-SW 0,00 h 0,025 mm 0,0 UV-I 0 W/m -2,2 C 2,4 C 6,4 km/h (2 Bft)
04.03.2015 21:00 2,2 C 73 % 1027,3 hPa 0,0 l/m 3,6 km/h (1 Bft) W-SW 0,00 h 0,025 mm 0,0 UV-I 0 W/m -2,0 C 2,2 C 6,3 km/h (2 Bft)
04.03.2015 22:00 1,9 C 76 % 1027,4 hPa 0,0 l/m 6,2 km/h (2 Bft) W-SW 0,00 h 0,025 mm 0,0 UV-I 0 W/m -1,9 C 1,4 C 10,0 km/h (2 Bft)
04.03.2015 23:00 1,5 C 79 % 1027,7 hPa 0,0 l/m 6,8 km/h (2 Bft) W 0,00 h 0,025 mm 0,0 UV-I 0 W/m -1,7 C 0,6 C 11,3 km/h (2 Bft)
05.03.2015 00:00 1,4 C 82 % 1028,1 hPa 0,0 l/m 6,0 km/h (2 Bft) W-SW 0,00 h 0,025 mm 0,0 UV-I 0 W/m -1,3 C 0,8 C 10,0 km/h (2 Bft)
05.03.2015 01:00 1,0 C 85 % 1028,5 hPa 0,0 l/m 3,5 km/h (1 Bft) SW 0,00 h 0,025 mm 0,0 UV-I 0 W/m -1,3 C 1,0 C 6,9 km/h (2 Bft)
05.03.2015 02:00 0,7 C 87 % 1028,7 hPa 0,0 l/m 4,6 km/h (1 Bft) W-SW 0,00 h 0,000 mm 0,0 UV-I 0 W/m -1,2 C 0,5 C 8,1 km/h (2 Bft)
05.03.2015 03:00 0,7 C 89 % 1028,8 hPa 0,0 l/m 7,8 km/h (2 Bft) W-SW 0,00 h 0,000 mm 0,0 UV-I 0 W/m -0,9 C -1,0 C 12,6 km/h (2 Bft)
05.03.2015 04:00 0,6 C 92 % 1029,2 hPa 0,0 l/m 5,1 km/h (1 Bft) W-SW 0,00 h 0,000 mm 0,0 UV-I 0 W/m -0,6 C 0,3 C 8,2 km/h (2 Bft)
05.03.2015 05:00 0,4 C 92 % 1029,6 hPa 0,0 l/m 1,5 km/h (1 Bft) W-SW 0,00 h 0,000 mm 0,0 UV-I 0 W/m -0,8 C 0,4 C 3,4 km/h (1 Bft)
05.03.2015 06:00 0,4 C 93 % 1030,1 hPa 0,0 l/m 4,6 km/h (1 Bft) W-NW 0,00 h 0,000 mm 0,0 UV-I 5 W/m -0,6 C -0,0 C 7,5 km/h (2 Bft)
05.03.2015 07:00 0,6 C 93 % 1030,8 hPa 0,2 l/m 9,2 km/h (2 Bft) NW 0,00 h 0,000 mm 0,0 UV-I 17 W/m -0,3 C -2,0 C 12,8 km/h (3 Bft)
05.03.2015 08:00 1,0 C 93 % 1031,6 hPa 0,2 l/m 9,2 km/h (2 Bft) NW 0,58 h 0,000 mm 0,0 UV-I 59 W/m -0,0 C -1,6 C 14,5 km/h (3 Bft)
05.03.2015 09:00 1,3 C 92 % 1032,5 hPa 0,0 l/m 7,8 km/h (2 Bft) N-NW 0,77 h 0,025 mm 0,6 UV-I 91 W/m 0,1 C -0,5 C 12,4 km/h (2 Bft)
05.03.2015 10:00 1,6 C 87 % 1033,2 hPa 0,0 l/m 9,0 km/h (2 Bft) N-NW 0,58 h 0,025 mm 0,5 UV-I 70 W/m -0,4 C -0,9 C 14,6 km/h (3 Bft)
05.03.2015 11:00 1,9 C 82 % 1033,6 hPa 0,0 l/m 10,4 km/h (2 Bft) N-NW 1,00 h 0,025 mm 0,9 UV-I 167 W/m -0,9 C -1,5 C 16,4 km/h (3 Bft)
05.03.2015 12:00 3,6 C 71 % 1033,9 hPa 0,0 l/m 10,9 km/h (2 Bft) N-NW 1,00 h 0,076 mm 1,7 UV-I 501 W/m -1,1 C -0,1 C 17,7 km/h (3 Bft)
05.03.2015 13:00 4,7 C 65 % 1033,9 hPa 0,0 l/m 11,3 km/h (2 Bft) N 1,00 h 0,203 mm 1,6 UV-I 394 W/m -1,4 C 0,9 C 17,5 km/h (3 Bft)
05.03.2015 14:00 4,9 C 60 % 1033,8 hPa 0,0 l/m 9,9 km/h (2 Bft) N 1,00 h 0,203 mm 1,3 UV-I 341 W/m -2,3 C 1,9 C 15,5 km/h (3 Bft)
05.03.2015 15:00 4,9 C 58 % 1034,1 hPa 0,0 l/m 10,7 km/h (2 Bft) N 1,00 h 0,178 mm 0,7 UV-I 197 W/m -2,5 C 1,7 C 16,2 km/h (3 Bft)
05.03.2015 16:00 4,3 C 60 % 1034,2 hPa 0,0 l/m 8,5 km/h (2 Bft) N 0,92 h 0,127 mm 0,0 UV-I 91 W/m -2,7 C 2,1 C 13,7 km/h (3 Bft)
05.03.2015 17:00 3,8 C 63 % 1034,4 hPa 0,0 l/m 2,3 km/h (1 Bft) N-NW 0,08 h 0,076 mm 0,0 UV-I 25 W/m -2,7 C 3,7 C 4,6 km/h (1 Bft)
05.03.2015 18:00 3,2 C 67 % 1035,0 hPa 0,0 l/m 2,9 km/h (1 Bft) N-NW 0,00 h 0,025 mm 0,0 UV-I 0 W/m -2,3 C 3,2 C 5,3 km/h (1 Bft)
05.03.2015 19:00 2,8 C 72 % 1035,4 hPa 0,0 l/m 0,9 km/h (0 Bft) W-NW 0,00 h 0,000 mm 0,0 UV-I 0 W/m -1,6 C 2,8 C 2,2 km/h (1 Bft)
05.03.2015 20:00 2,5 C 76 % 1035,6 hPa 0,0 l/m 1,7 km/h (1 Bft) NW 0,00 h 0,025 mm 0,0 UV-I 0 W/m -1,2 C 2,5 C 3,7 km/h (1 Bft)
05.03.2015 21:00 2,2 C 78 % 1035,8 hPa 0,0 l/m 0,8 km/h (0 Bft) NW 0,00 h 0,025 mm 0,0 UV-I 0 W/m -1,3 C 2,2 C 2,3 km/h (1 Bft)
05.03.2015 22:00 2,0 C 79 % 1036,0 hPa 0,0 l/m 1,2 km/h (1 Bft) W-NW 0,00 h 0,000 mm 0,0 UV-I 0 W/m -1,2 C 2,0 C 2,6 km/h (1 Bft)
05.03.2015 23:00 1,9 C 81 % 1036,0 hPa 0,0 l/m 0,5 km/h (0 Bft) W-NW 0,00 h 0,000 mm 0,0 UV-I 0 W/m -1,1 C 1,9 C 1,5 km/h (1 Bft)
06.03.2015 00:00 1,5 C 82 % 1036,0 hPa 0,0 l/m 0,3 km/h (0 Bft) N 0,00 h 0,000 mm 0,0 UV-I 0 W/m -1,2 C 1,5 C 1,0 km/h (0 Bft)
06.03.2015 01:00 1,3 C 84 % 1036,3 hPa 0,0 l/m 0,5 km/h (0 Bft) N 0,00 h 0,000 mm 0,0 UV-I 0 W/m -1,1 C 1,3 C 1,4 km/h (1 Bft)
06.03.2015 02:00 1,1 C 85 % 1036,2 hPa 0,0 l/m 0,0 km/h (0 Bft) N 0,00 h 0,000 mm 0,0 UV-I 0 W/m -1,1 C 1,1 C 0,2 km/h (0 Bft)
06.03.2015 03:00 0,2 C 86 % 1036,1 hPa 0,0 l/m 0,0 km/h (0 Bft) N 0,00 h 0,000 mm 0,0 UV-I 0 W/m -1,8 C 0,2 C 0,1 km/h (0 Bft)
06.03.2015 04:00 -0,5 C 90 % 1036,1 hPa 0,0 l/m 0,3 km/h (0 Bft) N 0,00 h 0,000 mm 0,0 UV-I 0 W/m -2,0 C -0,5 C 0,9 km/h (0 Bft)
06.03.2015 05:00 -0,4 C 91 % 1036,5 hPa 0,0 l/m 0,1 km/h (0 Bft) N 0,00 h 0,000 mm 0,0 UV-I 0 W/m -1,6 C -0,4 C 1,0 km/h (0 Bft)
06.03.2015 06:00 -0,2 C 90 % 1036,7 hPa 0,0 l/m 0,7 km/h (0 Bft) N 0,00 h 0,000 mm 0,0 UV-I 5 W/m -1,6 C -0,2 C 2,2 km/h (1 Bft)
06.03.2015 07:00 -0,3 C 91 % 1037,0 hPa 0,0 l/m 0,0 km/h (0 Bft) N 0,00 h 0,000 mm 0,0 UV-I 11 W/m -1,6 C -0,3 C 0,2 km/h (0 Bft)
06.03.2015 08:00 0,1 C 92 % 1037,3 hPa 0,0 l/m 0,9 km/h (0 Bft) S 0,00 h 0,000 mm 0,0 UV-I 22 W/m -1,0 C 0,1 C 2,6 km/h (1 Bft)
06.03.2015 09:00 0,7 C 93 % 1037,5 hPa 0,0 l/m 1,3 km/h (1 Bft) SO 0,67 h 0,000 mm 0,6 UV-I 74 W/m -0,4 C 0,7 C 3,0 km/h (1 Bft)
06.03.2015 10:00 2,0 C 89 % 1037,4 hPa 0,0 l/m 1,2 km/h (1 Bft) N 1,00 h 0,025 mm 0,8 UV-I 148 W/m 0,3 C 2,0 C 2,6 km/h (1 Bft)
06.03.2015 11:00 2,7 C 85 % 1037,5 hPa 0,0 l/m 2,6 km/h (1 Bft) S 1,00 h 0,051 mm 1,0 UV-I 152 W/m 0,5 C 2,7 C 4,9 km/h (1 Bft)
06.03.2015 12:00 3,4 C 83 % 1037,3 hPa 0,0 l/m 3,1 km/h (1 Bft) SW 1,00 h 0,051 mm 0,6 UV-I 92 W/m 0,8 C 3,4 C 5,8 km/h (2 Bft)
06.03.2015 13:00 3,7 C 82 % 1036,9 hPa 0,0 l/m 4,3 km/h (1 Bft) W-SW 1,00 h 0,051 mm 0,6 UV-I 91 W/m 0,9 C 3,6 C 7,4 km/h (2 Bft)
06.03.2015 14:00 4,1 C 80 % 1036,6 hPa 0,0 l/m 5,1 km/h (1 Bft) W-SW 0,80 h 0,051 mm 0,5 UV-I 63 W/m 0,9 C 4,0 C 8,3 km/h (2 Bft)
06.03.2015 15:00 4,3 C 75 % 1036,1 hPa 0,0 l/m 5,9 km/h (2 Bft) W-SW 1,00 h 0,025 mm 0,6 UV-I 96 W/m 0,4 C 3,9 C 9,3 km/h (2 Bft)
06.03.2015 16:00 4,4 C 76 % 1035,9 hPa 0,0 l/m 4,9 km/h (1 Bft) W-SW 0,02 h 0,051 mm 0,0 UV-I 27 W/m 0,4 C 3,9 C 7,8 km/h (2 Bft)
06.03.2015 17:00 4,1 C 75 % 1035,9 hPa 0,0 l/m 4,3 km/h (1 Bft) W 0,00 h 0,025 mm 0,0 UV-I 12 W/m 0,2 C 4,0 C 7,2 km/h (2 Bft)
06.03.2015 18:00 3,7 C 77 % 1036,1 hPa 0,0 l/m 0,5 km/h (0 Bft) W 0,00 h 0,025 mm 0,0 UV-I 0 W/m 0,1 C 3,7 C 1,8 km/h (1 Bft)
06.03.2015 19:00 3,3 C 80 % 1036,4 hPa 0,0 l/m 0,6 km/h (0 Bft) N 0,00 h 0,025 mm 0,0 UV-I 0 W/m 0,1 C 3,3 C 1,3 km/h (1 Bft)
06.03.2015 20:00 2,8 C 83 % 1036,8 hPa 0,0 l/m 0,3 km/h (0 Bft) N 0,00 h 0,000 mm 0,0 UV-I 0 W/m 0,1 C 2,8 C 0,9 km/h (0 Bft)
06.03.2015 21:00 2,7 C 84 % 1037,0 hPa 0,0 l/m 0,0 km/h (0 Bft) N 0,00 h 0,000 mm 0,0 UV-I 0 W/m 0,2 C 2,7 C 0,1 km/h (0 Bft)
06.03.2015 22:00 2,5 C 85 % 1036,6 hPa 0,0 l/m 0,3 km/h (0 Bft) N 0,00 h 0,000 mm 0,0 UV-I 0 W/m 0,2 C 2,5 C 1,2 km/h (1 Bft)
06.03.2015 23:00 2,4 C 85 % 1036,4 hPa 0,0 l/m 0,1 km/h (0 Bft) N 0,00 h 0,000 mm 0,0 UV-I 0 W/m 0,1 C 2,4 C 0,4 km/h (0 Bft)
07.03.2015 00:00 2,1 C 86 % 1036,0 hPa 0,0 l/m 0,0 km/h (0 Bft) N 0,00 h 0,000 mm 0,0 UV-I 0 W/m 0,1 C 2,1 C 0,4 km/h (0 Bft)
07.03.2015 01:00 1,8 C 88 % 1036,4 hPa 0,0 l/m 0,0 km/h (0 Bft) N 0,00 h 0,000 mm 0,0 UV-I 0 W/m -0,0 C 1,8 C 0,0 km/h (0 Bft)
07.03.2015 02:00 1,3 C 89 % 1036,1 hPa 0,0 l/m 0,0 km/h (0 Bft) N 0,00 h 0,000 mm 0,0 UV-I 0 W/m -0,3 C 1,3 C 0,0 km/h (0 Bft)
07.03.2015 03:00 0,3 C 89 % 1035,9 hPa 0,0 l/m 0,0 km/h (0 Bft) N 0,00 h 0,000 mm 0,0 UV-I 0 W/m -1,3 C 0,3 C 0,1 km/h (0 Bft)
07.03.2015 04:00 -0,9 C 91 % 1035,6 hPa 0,0 l/m 0,1 km/h (0 Bft) N 0,00 h 0,000 mm 0,0 UV-I 0 W/m -2,2 C -0,9 C 0,4 km/h (0 Bft)
07.03.2015 05:00 -1,6 C 93 % 1035,7 hPa 0,0 l/m 0,0 km/h (0 Bft) N 0,00 h 0,000 mm 0,0 UV-I 0 W/m -2,6 C -1,6 C 0,1 km/h (0 Bft)
07.03.2015 06:00 -2,1 C 93 % 1035,7 hPa 0,0 l/m 0,0 km/h (0 Bft) N 0,00 h 0,000 mm 0,0 UV-I 8 W/m -3,1 C -2,1 C 0,1 km/h (0 Bft)
07.03.2015 07:00 -2,1 C 94 % 1035,5 hPa 0,0 l/m 0,0 km/h (0 Bft) N 0,27 h 0,000 mm 0,0 UV-I 49 W/m -2,9 C -2,1 C 0,1 km/h (0 Bft)
07.03.2015 08:00 0,7 C 92 % 1035,5 hPa 0,0 l/m 0,0 km/h (0 Bft) N 1,00 h 0,025 mm 0,6 UV-I 218 W/m -0,5 C 0,7 C 0,1 km/h (0 Bft)
07.03.2015 09:00 4,2 C 79 % 1035,6 hPa 0,0 l/m 1,7 km/h (1 Bft) N 1,00 h 0,076 mm 1,1 UV-I 379 W/m 0,9 C 4,1 C 3,7 km/h (1 Bft)
07.03.2015 10:00 6,3 C 67 % 1036,2 hPa 0,0 l/m 7,9 km/h (2 Bft) W-SW 1,00 h 0,152 mm 1,7 UV-I 480 W/m 0,7 C 4,9 C 12,9 km/h (3 Bft)
07.03.2015 11:00 6,7 C 63 % 1035,9 hPa 0,0 l/m 9,0 km/h (2 Bft) SW 1,00 h 0,229 mm 1,9 UV-I 401 W/m 0,1 C 4,7 C 14,0 km/h (3 Bft)
07.03.2015 12:00 7,6 C 58 % 1035,3 hPa 0,0 l/m 8,8 km/h (2 Bft) SW 1,00 h 0,204 mm 2,2 UV-I 515 W/m -0,2 C 5,8 C 13,1 km/h (3 Bft)
07.03.2015 13:00 8,4 C 58 % 1034,4 hPa 0,0 l/m 8,0 km/h (2 Bft) S 1,00 h 0,254 mm 2,0 UV-I 529 W/m 0,5 C 6,9 C 12,2 km/h (2 Bft)
07.03.2015 14:00 9,1 C 55 % 1033,7 hPa 0,0 l/m 6,2 km/h (2 Bft) S 1,00 h 0,254 mm 1,6 UV-I 474 W/m 0,5 C 8,4 C 9,5 km/h (2 Bft)
07.03.2015 15:00 9,3 C 54 % 1033,4 hPa 0,0 l/m 5,0 km/h (1 Bft) S 1,00 h 0,229 mm 1,0 UV-I 334 W/m 0,6 C 8,9 C 8,2 km/h (2 Bft)
07.03.2015 16:00 9,0 C 57 % 1032,9 hPa 0,0 l/m 4,0 km/h (1 Bft) S 1,00 h 0,178 mm 0,6 UV-I 139 W/m 0,9 C 8,9 C 6,7 km/h (2 Bft)
07.03.2015 17:00 8,0 C 61 % 1032,6 hPa 0,0 l/m 2,5 km/h (1 Bft) S-SO 0,20 h 0,076 mm 0,0 UV-I 28 W/m 0,9 C 8,0 C 4,5 km/h (1 Bft)
07.03.2015 18:00 6,5 C 67 % 1032,6 hPa 0,0 l/m 0,3 km/h (0 Bft) N 0,00 h 0,025 mm 0,0 UV-I 0 W/m 0,8 C 6,5 C 1,1 km/h (0 Bft)
07.03.2015 19:00 4,5 C 76 % 1032,5 hPa 0,0 l/m 0,6 km/h (0 Bft) O 0,00 h 0,000 mm 0,0 UV-I 0 W/m 0,7 C 4,5 C 1,9 km/h (1 Bft)
07.03.2015 20:00 2,8 C 81 % 1032,5 hPa 0,0 l/m 0,1 km/h (0 Bft) N 0,00 h 0,025 mm 0,0 UV-I 0 W/m -0,1 C 2,8 C 0,7 km/h (0 Bft)
07.03.2015 21:00 1,3 C 84 % 1032,4 hPa 0,0 l/m 0,0 km/h (0 Bft) N 0,00 h 0,000 mm 0,0 UV-I 0 W/m -1,0 C 1,3 C 0,1 km/h (0 Bft)
07.03.2015 22:00 0,2 C 88 % 1032,3 hPa 0,0 l/m 0,0 km/h (0 Bft) N 0,00 h 0,000 mm 0,0 UV-I 0 W/m -1,5 C 0,2 C 0,2 km/h (0 Bft)
07.03.2015 23:00 -0,5 C 89 % 1032,3 hPa 0,0 l/m 0,0 km/h (0 Bft) N 0,00 h 0,000 mm 0,0 UV-I 0 W/m -2,1 C -0,5 C 0,1 km/h (0 Bft)
08.03.2015 00:00 -1,2 C 91 % 1031,8 hPa 0,0 l/m 0,0 km/h (0 Bft) N 0,00 h 0,000 mm 0,0 UV-I 0 W/m -2,4 C -1,2 C 0,2 km/h (0 Bft)
08.03.2015 01:00 -1,4 C 92 % 1031,7 hPa 0,0 l/m 0,0 km/h (0 Bft) N 0,00 h 0,000 mm 0,0 UV-I 0 W/m -2,5 C -1,4 C 0,3 km/h (0 Bft)
08.03.2015 02:00 -1,9 C 92 % 1031,5 hPa 0,0 l/m 0,0 km/h (0 Bft) N 0,00 h 0,000 mm 0,0 UV-I 0 W/m -3,0 C -1,9 C 0,0 km/h (0 Bft)
08.03.2015 03:00 -2,1 C 93 % 1031,2 hPa 0,0 l/m 0,0 km/h (0 Bft) N 0,00 h 0,000 mm 0,0 UV-I 0 W/m -3,1 C -2,1 C 0,3 km/h (0 Bft)
08.03.2015 04:00 -2,3 C 93 % 1031,0 hPa 0,0 l/m 0,0 km/h (0 Bft) N 0,00 h 0,000 mm 0,0 UV-I 0 W/m -3,2 C -2,3 C 0,0 km/h (0 Bft)
08.03.2015 05:00 -2,5 C 93 % 1030,7 hPa 0,0 l/m 0,0 km/h (0 Bft) N 0,00 h 0,000 mm 0,0 UV-I 0 W/m -3,5 C -2,5 C 0,1 km/h (0 Bft)
08.03.2015 06:00 -2,9 C 93 % 1030,4 hPa 0,0 l/m 0,0 km/h (0 Bft) N 0,00 h 0,000 mm 0,0 UV-I 10 W/m -3,9 C -2,9 C 0,0 km/h (0 Bft)
08.03.2015 07:00 -2,7 C 94 % 1030,2 hPa 0,0 l/m 0,0 km/h (0 Bft) N 0,47 h 0,000 mm 0,0 UV-I 67 W/m -3,5 C -2,7 C 0,1 km/h (0 Bft)
08.03.2015 08:00 1,0 C 90 % 1030,1 hPa 0,0 l/m 0,0 km/h (0 Bft) N 1,00 h 0,025 mm 0,7 UV-I 280 W/m -0,5 C 1,0 C 0,5 km/h (0 Bft)
08.03.2015 09:00 5,5 C 73 % 1030,1 hPa 0,0 l/m 0,1 km/h (0 Bft) N 1,00 h 0,102 mm 1,2 UV-I 397 W/m 1,1 C 5,5 C 0,7 km/h (0 Bft)
08.03.2015 10:00 8,0 C 63 % 1030,0 hPa 0,0 l/m 1,3 km/h (1 Bft) W-NW 1,00 h 0,152 mm 1,8 UV-I 473 W/m 1,4 C 8,0 C 3,2 km/h (1 Bft)
08.03.2015 11:00 9,8 C 57 % 1029,6 hPa 0,0 l/m 0,7 km/h (0 Bft) W-NW 1,00 h 0,229 mm 2,0 UV-I 463 W/m 1,7 C 9,8 C 2,2 km/h (1 Bft)
08.03.2015 12:00 11,4 C 52 % 1029,1 hPa 0,0 l/m 0,7 km/h (0 Bft) N 1,00 h 0,229 mm 2,4 UV-I 565 W/m 2,0 C 11,4 C 2,3 km/h (1 Bft)
08.03.2015 13:00 13,1 C 48 % 1028,3 hPa 0,0 l/m 1,2 km/h (1 Bft) O-NO 1,00 h 0,279 mm 2,2 UV-I 555 W/m 2,2 C 13,1 C 3,3 km/h (1 Bft)
08.03.2015 14:00 14,1 C 44 % 1027,4 hPa 0,0 l/m 1,7 km/h (1 Bft) O-SO 1,00 h 0,279 mm 1,7 UV-I 459 W/m 2,0 C 14,1 C 3,8 km/h (1 Bft)
08.03.2015 15:00 14,7 C 38 % 1026,5 hPa 0,0 l/m 3,0 km/h (1 Bft) O-SO 1,00 h 0,254 mm 1,1 UV-I 346 W/m 0,6 C 14,6 C 5,8 km/h (2 Bft)
08.03.2015 16:00 13,7 C 40 % 1026,0 hPa 0,0 l/m 4,3 km/h (1 Bft) O-SO 1,00 h 0,203 mm 0,6 UV-I 137 W/m 0,3 C 13,5 C 9,0 km/h (2 Bft)
08.03.2015 17:00 11,6 C 48 % 1026,0 hPa 0,0 l/m 5,7 km/h (2 Bft) O-SO 0,12 h 0,102 mm 0,0 UV-I 25 W/m 1,1 C 11,4 C 10,2 km/h (2 Bft)
08.03.2015 18:00 10,0 C 52 % 1026,1 hPa 0,0 l/m 2,3 km/h (1 Bft) O-SO 0,00 h 0,051 mm 0,0 UV-I 0 W/m 0,7 C 10,0 C 4,2 km/h (1 Bft)
08.03.2015 19:00 7,5 C 63 % 1026,0 hPa 0,0 l/m 2,3 km/h (1 Bft) O 0,00 h 0,025 mm 0,0 UV-I 0 W/m 1,0 C 7,5 C 4,4 km/h (1 Bft)
08.03.2015 20:00 5,1 C 73 % 1025,9 hPa 0,0 l/m 0,3 km/h (0 Bft) N 0,00 h 0,025 mm 0,0 UV-I 0 W/m 0,6 C 5,1 C 0,9 km/h (0 Bft)
08.03.2015 21:00 3,6 C 79 % 1025,6 hPa 0,0 l/m 0,1 km/h (0 Bft) N 0,00 h 0,025 mm 0,0 UV-I 0 W/m 0,2 C 3,6 C 0,6 km/h (0 Bft)
08.03.2015 22:00 2,4 C 83 % 1025,4 hPa 0,0 l/m 0,4 km/h (0 Bft) N 0,00 h 0,000 mm 0,0 UV-I 0 W/m -0,2 C 2,4 C 1,0 km/h (0 Bft)
08.03.2015 23:00 1,5 C 85 % 1025,6 hPa 0,0 l/m 0,2 km/h (0 Bft) N 0,00 h 0,000 mm 0,0 UV-I 0 W/m -0,7 C 1,5 C 0,5 km/h (0 Bft)
Min-Datum _ 08.03.15 08.03.15 02.03.15 - 02.03.15 - - - - - 03.03.15 03.03.15 02.03.15
_ Min-Zeit 06:43 15:56 04:55 - 00:00 - - - - - 16:09 03:37 00:34
Minimum _ -3,1 C 30 % 1000,8 hPa - 0,0 km/h (0 Bft) - - - - - -4,2 C -13,6 C 0,0 km/h (0 Bft)
Max-Datum _ 08.03.15 02.03.15 06.03.15 02.03.15 03.03.15 - 08.03.15 08.03.15 08.03.15 03.03.15 02.03.15 08.03.15 03.03.15
_ Max-Zeit 15:30 00:00 09:53 05:13 03:37 - 14:45 13:00 12:10 10:47 04:09 15:30 03:37
Maximum _ 15,1 C 97 % 1037,7 hPa 3,2 l/m 30,6 km/h
W (5 Bft)
- 0,07 h 0,279 mm 2,5 UV-I 773 W/m 4,9 C 15,1 C 48,3 km/h
W-NW (6 Bft)
Durchschnitt _ 3,1 C 79 % 1026,0 hPa #8,4 l/m 5,4 km/h (1 Bft) N #60:21 h #8,342 mm 1,2 UV-I 211 W/m -0,5 C 1,8 C 8,7 km/h (2 Bft)